createdAt,value
2018-11-21T00:00:09.307Z,0
2018-11-21T00:01:09.270Z,0
2018-11-21T00:02:09.249Z,0
2018-11-21T00:03:11.703Z,0
2018-11-21T00:04:09.494Z,0
2018-11-21T00:05:09.473Z,0
2018-11-21T00:06:09.209Z,0
2018-11-21T00:07:08.955Z,0
2018-11-21T00:08:09.206Z,0
2018-11-21T00:09:08.926Z,0
2018-11-21T00:10:09.420Z,0
2018-11-21T00:11:08.890Z,0
2018-11-21T00:12:08.884Z,0
2018-11-21T00:13:09.134Z,0
2018-11-21T00:14:09.113Z,0
2018-11-21T00:15:08.880Z,0
2018-11-21T00:16:08.828Z,0
2018-11-21T00:17:09.072Z,0
2018-11-21T00:18:09.072Z,0
2018-11-21T00:19:09.096Z,0
2018-11-21T00:20:09.070Z,0
2018-11-21T00:21:09.028Z,0
2018-11-21T00:22:09.021Z,0
2018-11-21T00:23:09.249Z,0
2018-11-21T00:24:09.237Z,0
2018-11-21T00:25:09.008Z,0
2018-11-21T00:26:08.952Z,0
2018-11-21T00:27:08.692Z,0
2018-11-21T00:28:08.712Z,0
2018-11-21T00:29:08.938Z,0
2018-11-21T00:30:08.670Z,0
2018-11-21T00:31:09.154Z,0
2018-11-21T00:32:08.662Z,0
2018-11-21T00:33:09.684Z,0
2018-11-21T00:34:08.625Z,0
2018-11-21T00:35:08.611Z,0
2018-11-21T00:36:08.861Z,0
2018-11-21T00:37:08.840Z,0
2018-11-21T00:38:08.829Z,0
2018-11-21T00:39:09.059Z,0
2018-11-21T00:40:08.822Z,0
2018-11-21T00:41:08.782Z,0
2018-11-21T00:42:09.054Z,0
2018-11-21T00:43:09.020Z,0
2018-11-21T00:44:09.007Z,0
2018-11-21T00:45:08.994Z,0
2018-11-21T00:46:08.985Z,0
2018-11-21T00:47:08.453Z,0
2018-11-21T00:48:08.725Z,0
2018-11-21T00:49:08.438Z,0
2018-11-21T00:50:08.427Z,0
2018-11-21T00:51:08.676Z,0
2018-11-21T00:52:08.648Z,0
2018-11-21T00:53:08.647Z,0
2018-11-21T00:54:08.858Z,0
2018-11-21T00:55:09.287Z,0
2018-11-21T00:56:08.597Z,0
2018-11-21T00:57:08.811Z,0
2018-11-21T00:58:08.330Z,0
2018-11-21T00:59:08.568Z,0
2018-11-21T01:00:08.853Z,0
2018-11-21T01:01:08.550Z,0
2018-11-21T01:02:08.018Z,0
2018-11-21T01:03:08.778Z,0
2018-11-21T01:04:08.499Z,0
2018-11-21T01:05:08.492Z,0
2018-11-21T01:06:08.271Z,0
2018-11-21T01:07:08.477Z,0
2018-11-21T01:08:08.285Z,0
2018-11-21T01:09:08.700Z,0
2018-11-21T01:10:08.169Z,0
2018-11-21T01:11:08.425Z,0
2018-11-21T01:12:08.430Z,0
2018-11-21T01:13:08.669Z,0
2018-11-21T01:14:08.660Z,0
2018-11-21T01:15:08.145Z,0
2018-11-21T01:16:08.088Z,0
2018-11-21T01:17:08.704Z,0
2018-11-21T01:18:08.354Z,0
2018-11-21T01:19:08.572Z,0
2018-11-21T01:20:08.040Z,0
2018-11-21T01:21:08.570Z,0
2018-11-21T01:22:08.265Z,0
2018-11-21T01:23:07.996Z,0
2018-11-21T01:24:08.083Z,0
2018-11-21T01:25:08.260Z,0
2018-11-21T01:26:08.228Z,0
2018-11-21T01:27:07.735Z,0
2018-11-21T01:28:08.457Z,0
2018-11-21T01:29:07.940Z,0
2018-11-21T01:30:07.917Z,0
2018-11-21T01:31:08.512Z,0
2018-11-21T01:32:07.930Z,0
2018-11-21T01:33:14.341Z,0
2018-11-21T01:34:08.152Z,0
2018-11-21T01:35:08.129Z,0
2018-11-21T01:36:08.348Z,0
2018-11-21T01:37:08.182Z,0
2018-11-21T01:38:08.084Z,0
2018-11-21T01:39:08.078Z,0
2018-11-21T01:40:08.329Z,0
2018-11-21T01:41:07.779Z,0
2018-11-21T01:42:07.771Z,0
2018-11-21T01:43:08.008Z,0
2018-11-21T01:44:08.317Z,0
2018-11-21T01:45:08.015Z,0
2018-11-21T01:46:07.759Z,0
2018-11-21T01:47:07.980Z,0
2018-11-21T01:48:08.216Z,0
2018-11-21T01:49:07.698Z,0
2018-11-21T01:50:08.184Z,0
2018-11-21T01:51:07.656Z,0
2018-11-21T01:52:07.958Z,0
2018-11-21T01:53:08.161Z,0
2018-11-21T01:54:07.894Z,0
2018-11-21T01:55:07.635Z,0
2018-11-21T01:56:07.895Z,0
2018-11-21T01:57:07.935Z,0
2018-11-21T01:58:07.311Z,0
2018-11-21T01:59:07.808Z,0
2018-11-21T02:00:07.843Z,0
2018-11-21T02:01:08.067Z,0
2018-11-21T02:02:07.576Z,0
2018-11-21T02:03:07.515Z,0
2018-11-21T02:04:07.749Z,0
2018-11-21T02:05:07.485Z,0
2018-11-21T02:06:07.493Z,0
2018-11-21T02:07:07.735Z,0
2018-11-21T02:08:07.704Z,0
2018-11-21T02:09:07.490Z,0
2018-11-21T02:10:07.735Z,0
2018-11-21T02:11:07.419Z,0
2018-11-21T02:12:07.140Z,0
2018-11-21T02:13:07.641Z,0
2018-11-21T02:14:07.383Z,0
2018-11-21T02:15:07.367Z,0
2018-11-21T02:16:07.868Z,0
2018-11-21T02:17:07.595Z,0
2018-11-21T02:18:07.602Z,0
2018-11-21T02:19:07.069Z,0
2018-11-21T02:20:07.820Z,0
2018-11-21T02:21:07.323Z,0
2018-11-21T02:22:07.547Z,0
2018-11-21T02:23:07.548Z,0
2018-11-21T02:24:07.491Z,0
2018-11-21T02:25:07.493Z,0
2018-11-21T02:26:07.264Z,0
2018-11-21T02:27:07.733Z,0
2018-11-21T02:28:07.187Z,0
2018-11-21T02:29:07.492Z,0
2018-11-21T02:30:07.679Z,0
2018-11-21T02:31:07.687Z,0
2018-11-21T02:32:07.410Z,0
2018-11-21T02:33:07.151Z,0
2018-11-21T02:34:07.395Z,0
2018-11-21T02:35:07.393Z,0
2018-11-21T02:36:07.391Z,0
2018-11-21T02:37:07.336Z,0
2018-11-21T02:38:07.340Z,0
2018-11-21T02:39:07.612Z,0
2018-11-21T02:40:07.599Z,0
2018-11-21T02:41:07.287Z,0
2018-11-21T02:42:07.520Z,0
2018-11-21T02:43:07.290Z,0
2018-11-21T02:44:07.254Z,0
2018-11-21T02:45:07.264Z,0
2018-11-21T02:46:07.489Z,0
2018-11-21T02:47:07.242Z,0
2018-11-21T02:48:07.449Z,0
2018-11-21T02:49:07.435Z,0
2018-11-21T02:50:06.909Z,0
2018-11-21T02:51:07.431Z,0
2018-11-21T02:52:07.164Z,0
2018-11-21T02:53:07.164Z,0
2018-11-21T02:54:07.123Z,0
2018-11-21T02:55:07.370Z,0
2018-11-21T02:56:06.887Z,0
2018-11-21T02:57:06.831Z,0
2018-11-21T02:58:07.328Z,0
2018-11-21T02:59:07.318Z,0
2018-11-21T03:00:07.357Z,0
2018-11-21T03:01:06.779Z,0
2018-11-21T03:02:07.320Z,0
2018-11-21T03:03:07.024Z,0
2018-11-21T03:04:06.998Z,0
2018-11-21T03:05:06.982Z,0
2018-11-21T03:06:06.985Z,0
2018-11-21T03:07:07.223Z,0
2018-11-21T03:08:07.018Z,0
2018-11-21T03:09:06.949Z,0
2018-11-21T03:10:07.193Z,0
2018-11-21T03:11:07.189Z,0
2018-11-21T03:12:07.158Z,0
2018-11-21T03:13:06.653Z,0
2018-11-21T03:14:06.353Z,0
2018-11-21T03:15:06.879Z,0
2018-11-21T03:16:06.909Z,0
2018-11-21T03:17:07.133Z,0
2018-11-21T03:18:06.825Z,0
2018-11-21T03:19:07.060Z,0
2018-11-21T03:20:06.541Z,0
2018-11-21T03:21:06.556Z,0
2018-11-21T03:22:07.064Z,0
2018-11-21T03:23:06.511Z,0
2018-11-21T03:24:07.003Z,0
2018-11-21T03:25:06.489Z,0
2018-11-21T03:26:06.731Z,0
2018-11-21T03:27:07.019Z,0
2018-11-21T03:28:06.449Z,0
2018-11-21T03:29:06.439Z,0
2018-11-21T03:30:06.425Z,0
2018-11-21T03:31:06.457Z,0
2018-11-21T03:32:06.648Z,0
2018-11-21T03:33:06.903Z,0
2018-11-21T03:34:07.365Z,0
2018-11-21T03:35:06.923Z,0
2018-11-21T03:36:06.885Z,0
2018-11-21T03:37:06.843Z,0
2018-11-21T03:38:06.824Z,0
2018-11-21T03:39:06.560Z,0
2018-11-21T03:40:06.552Z,0
2018-11-21T03:41:06.523Z,0
2018-11-21T03:42:06.268Z,0
2018-11-21T03:43:06.520Z,0
2018-11-21T03:44:06.483Z,0
2018-11-21T03:45:06.741Z,0
2018-11-21T03:46:06.736Z,0
2018-11-21T03:47:06.484Z,0
2018-11-21T03:48:06.710Z,0
2018-11-21T03:49:06.699Z,0
2018-11-21T03:50:06.678Z,0
2018-11-21T03:51:06.411Z,0
2018-11-21T03:52:06.395Z,0
2018-11-21T03:53:06.395Z,0
2018-11-21T03:54:06.103Z,0
2018-11-21T03:55:05.852Z,0
2018-11-21T03:56:06.608Z,0
2018-11-21T03:57:06.580Z,0
2018-11-21T03:58:06.067Z,0
2018-11-21T03:59:06.315Z,0
2018-11-21T04:00:06.559Z,0
2018-11-21T04:01:06.294Z,0
2018-11-21T04:02:06.268Z,0
2018-11-21T04:03:06.008Z,0
2018-11-21T04:04:06.039Z,0
2018-11-21T04:05:06.225Z,0
2018-11-21T04:06:06.483Z,0
2018-11-21T04:07:05.689Z,0
2018-11-21T04:08:06.200Z,0
2018-11-21T04:09:06.467Z,0
2018-11-21T04:10:06.452Z,0
2018-11-21T04:11:06.165Z,0
2018-11-21T04:12:05.925Z,0
2018-11-21T04:13:06.404Z,0
2018-11-21T04:14:06.111Z,0
2018-11-21T04:15:06.123Z,0
2018-11-21T04:16:05.845Z,0
2018-11-21T04:17:06.334Z,0
2018-11-21T04:18:06.078Z,0
2018-11-21T04:19:05.786Z,0
2018-11-21T04:20:06.301Z,0
2018-11-21T04:21:06.015Z,0
2018-11-21T04:22:06.269Z,0
2018-11-21T04:23:05.995Z,0
2018-11-21T04:24:05.989Z,0
2018-11-21T04:25:05.989Z,0
2018-11-21T04:26:05.958Z,0
2018-11-21T04:27:05.680Z,0
2018-11-21T04:28:05.955Z,0
2018-11-21T04:29:06.202Z,0
2018-11-21T04:30:05.672Z,0
2018-11-21T04:31:06.155Z,0
2018-11-21T04:32:05.876Z,0
2018-11-21T04:33:05.891Z,0
2018-11-21T04:34:05.877Z,0
2018-11-21T04:35:06.121Z,0
2018-11-21T04:36:06.080Z,0
2018-11-21T04:37:05.867Z,0
2018-11-21T04:38:06.090Z,0
2018-11-21T04:39:05.796Z,0
2018-11-21T04:40:06.056Z,0
2018-11-21T04:41:05.510Z,0
2018-11-21T04:42:05.768Z,0
2018-11-21T04:43:06.004Z,0
2018-11-21T04:44:06.001Z,0
2018-11-21T04:45:06.038Z,0
2018-11-21T04:46:05.462Z,0
2018-11-21T04:47:05.973Z,0
2018-11-21T04:48:05.444Z,0
2018-11-21T04:49:05.419Z,0
2018-11-21T04:50:05.700Z,0
2018-11-21T04:51:05.898Z,0
2018-11-21T04:52:05.907Z,0
2018-11-21T04:53:05.644Z,0
2018-11-21T04:54:05.618Z,0
2018-11-21T04:55:05.345Z,0
2018-11-21T04:56:05.830Z,0
2018-11-21T04:57:05.597Z,0
2018-11-21T04:58:05.566Z,0
2018-11-21T04:59:05.318Z,0
2018-11-21T05:00:05.543Z,0
2018-11-21T05:01:05.535Z,0
2018-11-21T05:02:05.398Z,0
2018-11-21T05:03:05.761Z,0
2018-11-21T05:04:05.466Z,0
2018-11-21T05:05:07.060Z,0
2018-11-21T05:06:05.469Z,0
2018-11-21T05:07:05.716Z,0
2018-11-21T05:08:05.424Z,0
2018-11-21T05:09:05.454Z,0
2018-11-21T05:10:05.155Z,0
2018-11-21T05:11:06.363Z,0
2018-11-21T05:12:05.755Z,0
2018-11-21T05:13:05.369Z,0
2018-11-21T05:14:05.096Z,0
2018-11-21T05:15:05.357Z,0
2018-11-21T05:16:05.081Z,0
2018-11-21T05:17:05.585Z,0
2018-11-21T05:18:05.304Z,0
2018-11-21T05:19:05.027Z,0
2018-11-21T05:20:05.286Z,0
2018-11-21T05:21:04.994Z,0
2018-11-21T05:22:05.503Z,0
2018-11-21T05:23:04.975Z,0
2018-11-21T05:24:05.215Z,0
2018-11-21T05:25:05.471Z,0
2018-11-21T05:26:05.237Z,0
2018-11-21T05:27:05.205Z,0
2018-11-21T05:28:05.425Z,0
2018-11-21T05:29:05.413Z,0
2018-11-21T05:30:05.156Z,0
2018-11-21T05:31:05.159Z,0
2018-11-21T05:32:05.122Z,0
2018-11-21T05:33:04.855Z,0
2018-11-21T05:34:04.591Z,0
2018-11-21T05:35:05.364Z,0
2018-11-21T05:36:04.561Z,0
2018-11-21T05:37:05.323Z,0
2018-11-21T05:38:05.039Z,0
2018-11-21T05:39:05.290Z,0
2018-11-21T05:40:05.070Z,0
2018-11-21T05:41:05.281Z,0
2018-11-21T05:42:04.993Z,0
2018-11-21T05:43:04.740Z,0
2018-11-21T05:44:05.296Z,0
2018-11-21T05:45:05.211Z,0
2018-11-21T05:46:04.954Z,0
2018-11-21T05:47:05.199Z,0
2018-11-21T05:48:04.914Z,0
2018-11-21T05:49:04.916Z,0
2018-11-21T05:50:05.162Z,0
2018-11-21T05:51:04.894Z,0
2018-11-21T05:52:04.893Z,0
2018-11-21T05:53:04.601Z,0
2018-11-21T05:54:04.584Z,0
2018-11-21T05:55:04.316Z,0
2018-11-21T05:56:04.846Z,0
2018-11-21T05:57:04.570Z,0
2018-11-21T05:58:04.801Z,0
2018-11-21T05:59:04.565Z,0
2018-11-21T06:00:04.811Z,0
2018-11-21T06:01:05.024Z,0
2018-11-21T06:02:04.758Z,0
2018-11-21T06:03:04.487Z,0
2018-11-21T06:04:04.965Z,0
2018-11-21T06:05:05.527Z,0
2018-11-21T06:06:09.831Z,0
2018-11-21T06:07:04.960Z,0
2018-11-21T06:08:04.677Z,0
2018-11-21T06:09:04.471Z,0
2018-11-21T06:10:04.723Z,0
2018-11-21T06:11:04.671Z,0
2018-11-21T06:12:09.171Z,0
2018-11-21T06:13:04.350Z,0
2018-11-21T06:14:04.336Z,0
2018-11-21T06:15:04.840Z,0
2018-11-21T06:16:04.561Z,0
2018-11-21T06:17:04.813Z,0
2018-11-21T06:18:04.799Z,0
2018-11-21T06:19:04.534Z,0
2018-11-21T06:20:04.528Z,0
2018-11-21T06:21:04.501Z,0
2018-11-21T06:22:04.232Z,0
2018-11-21T06:23:04.244Z,0
2018-11-21T06:24:04.720Z,0
2018-11-21T06:25:04.471Z,0
2018-11-21T06:26:04.756Z,0
2018-11-21T06:27:04.676Z,0
2018-11-21T06:28:04.656Z,0
2018-11-21T06:29:04.199Z,0
2018-11-21T06:30:04.653Z,0
2018-11-21T06:31:04.629Z,0
2018-11-21T06:32:04.175Z,0
2018-11-21T06:33:04.371Z,0
2018-11-21T06:34:04.080Z,0
2018-11-21T06:35:04.335Z,0
2018-11-21T06:36:04.318Z,5
2018-11-21T06:37:04.300Z,5
2018-11-21T06:38:04.547Z,5
2018-11-21T06:39:04.257Z,5
2018-11-21T06:40:04.027Z,5
2018-11-21T06:41:04.000Z,5
2018-11-21T06:42:03.981Z,5
2018-11-21T06:43:04.267Z,5
2018-11-21T06:44:04.005Z,5
2018-11-21T06:45:04.457Z,10
2018-11-21T06:46:04.206Z,10
2018-11-21T06:47:04.182Z,10
2018-11-21T06:48:04.424Z,10
2018-11-21T06:49:04.418Z,10
2018-11-21T06:50:03.910Z,15
2018-11-21T06:51:04.386Z,15
2018-11-21T06:52:04.105Z,15
2018-11-21T06:53:04.131Z,15
2018-11-21T06:54:03.863Z,15
2018-11-21T06:55:03.815Z,20
2018-11-21T06:56:03.558Z,20
2018-11-21T06:57:04.286Z,20
2018-11-21T06:58:03.512Z,20
2018-11-21T06:59:04.529Z,20
2018-11-21T07:00:04.255Z,20
2018-11-21T07:01:04.024Z,25
2018-11-21T07:02:03.998Z,25
2018-11-21T07:03:03.443Z,25
2018-11-21T07:04:03.972Z,25
2018-11-21T07:05:03.969Z,25
2018-11-21T07:06:03.684Z,30
2018-11-21T07:07:04.174Z,30
2018-11-21T07:08:03.685Z,30
2018-11-21T07:09:03.904Z,30
2018-11-21T07:10:03.630Z,30
2018-11-21T07:11:04.132Z,30
2018-11-21T07:12:04.136Z,30
2018-11-21T07:13:03.853Z,30
2018-11-21T07:14:09.572Z,30
2018-11-21T07:15:04.080Z,30
2018-11-21T07:16:03.824Z,35
2018-11-21T07:17:04.054Z,40
2018-11-21T07:18:03.536Z,40
2018-11-21T07:19:03.754Z,40
2018-11-21T07:20:03.752Z,40
2018-11-21T07:21:03.722Z,40
2018-11-21T07:22:03.731Z,40
2018-11-21T07:23:03.726Z,40
2018-11-21T07:24:03.736Z,45
2018-11-21T07:25:03.704Z,45
2018-11-21T07:26:02.919Z,50
2018-11-21T07:27:03.925Z,50
2018-11-21T07:28:03.422Z,50
2018-11-21T07:29:04.279Z,50
2018-11-21T07:30:03.372Z,50
2018-11-21T07:31:03.358Z,50
2018-11-21T07:32:03.670Z,50
2018-11-21T07:33:03.601Z,50
2018-11-21T07:34:03.588Z,55
2018-11-21T07:35:03.067Z,55
2018-11-21T07:36:03.841Z,55
2018-11-21T07:37:03.832Z,60
2018-11-21T07:38:03.286Z,60
2018-11-21T07:39:03.306Z,60
2018-11-21T07:40:03.016Z,65
2018-11-21T07:41:03.493Z,65
2018-11-21T07:42:03.228Z,70
2018-11-21T07:43:03.854Z,70
2018-11-21T07:44:03.465Z,70
2018-11-21T07:45:03.736Z,70
2018-11-21T07:46:03.479Z,70
2018-11-21T07:47:03.204Z,75
2018-11-21T07:48:03.417Z,75
2018-11-21T07:49:03.160Z,75
2018-11-21T07:50:02.911Z,75
2018-11-21T07:51:09.356Z,75
2018-11-21T07:52:03.407Z,75
2018-11-21T07:53:03.398Z,75
2018-11-21T07:54:02.853Z,75
2018-11-21T07:55:03.630Z,75
2018-11-21T07:56:03.601Z,80
2018-11-21T07:57:03.289Z,75
2018-11-21T07:58:03.306Z,80
2018-11-21T07:59:03.591Z,80
2018-11-21T08:00:03.309Z,80
2018-11-21T08:01:03.276Z,80
2018-11-21T08:02:03.276Z,80
2018-11-21T08:03:03.277Z,80
2018-11-21T08:04:03.550Z,75
2018-11-21T08:05:02.982Z,75
2018-11-21T08:06:03.229Z,70
2018-11-21T08:07:03.476Z,70
2018-11-21T08:08:02.697Z,70
2018-11-21T08:09:03.220Z,70
2018-11-21T08:10:02.965Z,75
2018-11-21T08:11:03.174Z,75
2018-11-21T08:12:03.427Z,80
2018-11-21T08:13:03.415Z,85
2018-11-21T08:14:03.143Z,85
2018-11-21T08:15:03.126Z,85
2018-11-21T08:16:03.370Z,85
2018-11-21T08:17:02.863Z,85
2018-11-21T08:18:03.347Z,90
2018-11-21T08:19:03.098Z,90
2018-11-21T08:20:02.829Z,85
2018-11-21T08:21:02.549Z,85
2018-11-21T08:22:03.065Z,85
2018-11-21T08:23:02.545Z,85
2018-11-21T08:24:05.279Z,80
2018-11-21T08:25:03.278Z,80
2018-11-21T08:26:02.989Z,85
2018-11-21T08:27:03.457Z,85
2018-11-21T08:28:03.280Z,85
2018-11-21T08:29:02.994Z,85
2018-11-21T08:30:02.992Z,85
2018-11-21T08:31:03.234Z,85
2018-11-21T08:32:02.944Z,85
2018-11-21T08:33:02.948Z,85
2018-11-21T08:34:02.675Z,85
2018-11-21T08:35:03.197Z,85
2018-11-21T08:36:03.162Z,80
2018-11-21T08:37:03.995Z,80
2018-11-21T08:38:03.157Z,80
2018-11-21T08:39:02.632Z,80
2018-11-21T08:40:02.871Z,85
2018-11-21T08:41:02.870Z,85
2018-11-21T08:42:03.127Z,85
2018-11-21T08:43:02.583Z,85
2018-11-21T08:44:02.061Z,85
2018-11-21T08:45:03.077Z,85
2018-11-21T08:46:02.562Z,90
2018-11-21T08:47:02.793Z,80
2018-11-21T08:48:02.780Z,80
2018-11-21T08:49:02.513Z,85
2018-11-21T08:50:02.994Z,85
2018-11-21T08:51:03.068Z,90
2018-11-21T08:52:02.744Z,90
2018-11-21T08:53:03.035Z,90
2018-11-21T08:54:03.012Z,90
2018-11-21T08:55:03.028Z,90
2018-11-21T08:56:02.966Z,90
2018-11-21T08:57:02.924Z,90
2018-11-21T08:58:02.564Z,90
2018-11-21T08:59:02.692Z,90
2018-11-21T09:00:02.681Z,90
2018-11-21T09:01:02.937Z,90
2018-11-21T09:02:02.628Z,90
2018-11-21T09:03:02.914Z,90
2018-11-21T09:04:02.129Z,90
2018-11-21T09:05:02.873Z,95
2018-11-21T09:06:06.817Z,95
2018-11-21T09:07:02.782Z,95
2018-11-21T09:08:02.081Z,90
2018-11-21T09:09:02.836Z,95
2018-11-21T09:10:02.810Z,95
2018-11-21T09:11:02.290Z,95
2018-11-21T09:12:02.561Z,95
2018-11-21T09:13:02.596Z,90
2018-11-21T09:14:02.884Z,90
2018-11-21T09:15:02.266Z,90
2018-11-21T09:16:03.016Z,90
2018-11-21T09:17:02.507Z,90
2018-11-21T09:18:02.242Z,95
2018-11-21T09:19:02.233Z,95
2018-11-21T09:20:02.739Z,95
2018-11-21T09:21:02.742Z,90
2018-11-21T09:22:02.236Z,90
2018-11-21T09:23:02.718Z,90
2018-11-21T09:24:02.443Z,90
2018-11-21T09:25:02.480Z,85
2018-11-21T09:26:02.439Z,85
2018-11-21T09:27:02.189Z,90
2018-11-21T09:28:02.129Z,90
2018-11-21T09:29:02.644Z,90
2018-11-21T09:30:02.132Z,85
2018-11-21T09:31:02.391Z,85
2018-11-21T09:32:02.165Z,85
2018-11-21T09:33:02.610Z,85
2018-11-21T09:34:02.108Z,85
2018-11-21T09:35:02.339Z,85
2018-11-21T09:36:02.329Z,85
2018-11-21T09:37:02.579Z,85
2018-11-21T09:38:02.071Z,85
2018-11-21T09:39:02.550Z,85
2018-11-21T09:40:02.268Z,85
2018-11-21T09:41:02.029Z,85
2018-11-21T09:42:02.272Z,85
2018-11-21T09:43:02.512Z,85
2018-11-21T09:44:02.245Z,85
2018-11-21T09:45:02.513Z,80
2018-11-21T09:46:01.956Z,80
2018-11-21T09:47:01.961Z,80
2018-11-21T09:48:02.215Z,80
2018-11-21T09:49:02.452Z,80
2018-11-21T09:50:01.923Z,80
2018-11-21T09:51:02.421Z,75
2018-11-21T09:52:02.424Z,75
2018-11-21T09:53:02.406Z,75
2018-11-21T09:54:02.379Z,75
2018-11-21T09:55:01.887Z,75
2018-11-21T09:56:02.125Z,75
2018-11-21T09:57:02.408Z,75
2018-11-21T09:58:02.415Z,75
2018-11-21T09:59:02.386Z,75
2018-11-21T10:00:02.333Z,75
2018-11-21T10:01:02.335Z,75
2018-11-21T10:02:02.054Z,75
2018-11-21T10:03:02.055Z,75
2018-11-21T10:04:05.873Z,75
2018-11-21T10:05:02.044Z,75
2018-11-21T10:06:02.338Z,75
2018-11-21T10:07:01.762Z,75
2018-11-21T10:08:01.991Z,75
2018-11-21T10:09:02.251Z,75
2018-11-21T10:10:01.994Z,75
2018-11-21T10:11:01.967Z,75
2018-11-21T10:12:01.727Z,75
2018-11-21T10:13:02.214Z,75
2018-11-21T10:14:01.964Z,75
2018-11-21T10:15:01.732Z,75
2018-11-21T10:16:05.846Z,75
2018-11-21T10:17:01.910Z,80
2018-11-21T10:18:01.905Z,80
2018-11-21T10:19:01.677Z,85
2018-11-21T10:20:02.164Z,85
2018-11-21T10:21:01.897Z,85
2018-11-21T10:22:02.165Z,85
2018-11-21T10:23:01.873Z,85
2018-11-21T10:24:01.897Z,85
2018-11-21T10:25:01.394Z,85
2018-11-21T10:26:01.892Z,85
2018-11-21T10:27:01.590Z,80
2018-11-21T10:28:01.806Z,80
2018-11-21T10:29:02.123Z,80
2018-11-21T10:30:01.814Z,80
2018-11-21T10:31:02.059Z,80
2018-11-21T10:32:01.777Z,80
2018-11-21T10:33:02.048Z,80
2018-11-21T10:34:01.796Z,80
2018-11-21T10:35:01.757Z,85
2018-11-21T10:36:01.990Z,85
2018-11-21T10:37:01.493Z,90
2018-11-21T10:38:01.748Z,95
2018-11-21T10:39:01.734Z,95
2018-11-21T10:40:01.711Z,95
2018-11-21T10:41:01.934Z,95
2018-11-21T10:42:01.704Z,95
2018-11-21T10:43:01.924Z,95
2018-11-21T10:44:01.938Z,95
2018-11-21T10:45:01.667Z,95
2018-11-21T10:46:01.908Z,95
2018-11-21T10:47:01.416Z,95
2018-11-21T10:48:01.874Z,95
2018-11-21T10:49:01.358Z,90
2018-11-21T10:50:01.339Z,85
2018-11-21T10:51:01.874Z,85
2018-11-21T10:52:01.606Z,80
2018-11-21T10:53:01.333Z,80
2018-11-21T10:54:01.588Z,80
2018-11-21T10:55:01.819Z,85
2018-11-21T10:56:01.802Z,85
2018-11-21T10:57:01.272Z,85
2018-11-21T10:58:01.531Z,85
2018-11-21T10:59:01.508Z,85
2018-11-21T11:00:01.236Z,85
2018-11-21T11:01:01.757Z,85
2018-11-21T11:02:01.476Z,85
2018-11-21T11:03:01.491Z,85
2018-11-21T11:04:01.449Z,90
2018-11-21T11:05:01.255Z,90
2018-11-21T11:06:01.419Z,90
2018-11-21T11:07:01.465Z,90
2018-11-21T11:08:02.372Z,90
2018-11-21T11:09:01.431Z,90
2018-11-21T11:10:02.587Z,90
2018-11-21T11:11:01.435Z,95
2018-11-21T11:12:01.374Z,95
2018-11-21T11:13:01.372Z,95
2018-11-21T11:14:01.365Z,90
2018-11-21T11:15:01.361Z,90
2018-11-21T11:16:01.346Z,95
2018-11-21T11:17:01.349Z,90
2018-11-21T11:18:06.242Z,90
2018-11-21T11:19:01.058Z,90
2018-11-21T11:20:01.320Z,90
2018-11-21T11:21:01.285Z,90
2018-11-21T11:22:01.608Z,90
2018-11-21T11:23:01.108Z,90
2018-11-21T11:24:01.543Z,90
2018-11-21T11:25:01.300Z,85
2018-11-21T11:26:00.820Z,85
2018-11-21T11:27:01.309Z,80
2018-11-21T11:28:01.227Z,80
2018-11-21T11:29:01.239Z,80
2018-11-21T11:30:01.243Z,80
2018-11-21T11:31:01.209Z,80
2018-11-21T11:32:01.204Z,80
2018-11-21T11:33:00.681Z,80
2018-11-21T11:34:00.916Z,85
2018-11-21T11:35:01.414Z,85
2018-11-21T11:36:01.395Z,85
2018-11-21T11:37:01.384Z,85
2018-11-21T11:38:01.129Z,85
2018-11-21T11:39:01.129Z,85
2018-11-21T11:40:01.114Z,80
2018-11-21T11:41:00.866Z,80
2018-11-21T11:42:01.372Z,85
2018-11-21T11:43:01.360Z,90
2018-11-21T11:44:01.108Z,90
2018-11-21T11:45:01.071Z,90
2018-11-21T11:46:01.352Z,95
2018-11-21T11:47:01.064Z,95
2018-11-21T11:48:01.068Z,95
2018-11-21T11:49:01.306Z,95
2018-11-21T11:50:01.321Z,95
2018-11-21T11:51:00.999Z,95
2018-11-21T11:52:01.246Z,85
2018-11-21T11:53:00.753Z,85
2018-11-21T11:54:00.764Z,80
2018-11-21T11:55:00.770Z,75
2018-11-21T11:56:00.685Z,75
2018-11-21T11:57:00.694Z,70
2018-11-21T11:58:01.202Z,70
2018-11-21T11:59:00.904Z,65
2018-11-21T12:00:00.668Z,65
2018-11-21T12:01:02.168Z,65
2018-11-21T12:02:00.630Z,65
2018-11-21T12:03:01.189Z,60
2018-11-21T12:04:04.387Z,60
2018-11-21T12:05:00.603Z,55
2018-11-21T12:06:01.074Z,55
2018-11-21T12:07:00.814Z,55
2018-11-21T12:08:00.546Z,55
2018-11-21T12:09:00.847Z,55
2018-11-21T12:10:00.550Z,50
2018-11-21T12:11:00.818Z,55
2018-11-21T12:12:04.715Z,55
2018-11-21T12:13:00.568Z,55
2018-11-21T12:14:01.068Z,55
2018-11-21T12:15:00.508Z,55
2018-11-21T12:16:00.485Z,55
2018-11-21T12:17:00.501Z,60
2018-11-21T12:18:00.507Z,60
2018-11-21T12:19:00.236Z,65
2018-11-21T12:20:00.755Z,65
2018-11-21T12:21:00.708Z,65
2018-11-21T12:22:00.944Z,60
2018-11-21T12:23:00.696Z,65
2018-11-21T12:24:00.965Z,60
2018-11-21T12:25:00.954Z,60
2018-11-21T12:26:00.683Z,60
2018-11-21T12:27:00.399Z,55
2018-11-21T12:28:00.433Z,55
2018-11-21T12:29:00.393Z,55
2018-11-21T12:30:00.633Z,50
2018-11-21T12:31:00.889Z,55
2018-11-21T12:32:00.364Z,55
2018-11-21T12:33:00.360Z,55
2018-11-21T12:34:00.596Z,55
2018-11-21T12:35:00.613Z,55
2018-11-21T12:36:00.579Z,55
2018-11-21T12:37:00.363Z,55
2018-11-21T12:38:00.560Z,55
2018-11-21T12:39:00.821Z,55
2018-11-21T12:40:00.522Z,55
2018-11-21T12:41:00.774Z,55
2018-11-21T12:42:00.017Z,55
2018-11-21T12:43:00.531Z,55
2018-11-21T12:44:00.865Z,55
2018-11-21T12:45:00.771Z,55
2018-11-21T12:46:00.199Z,55
2018-11-21T12:47:00.463Z,55
2018-11-21T12:48:00.203Z,55
2018-11-21T12:49:00.699Z,50
2018-11-21T12:50:00.514Z,50
2018-11-21T12:51:00.184Z,50
2018-11-21T12:52:00.718Z,50
2018-11-21T12:53:00.666Z,50
2018-11-21T12:54:00.413Z,50
2018-11-21T12:55:00.654Z,50
2018-11-21T12:56:00.403Z,50
2018-11-21T12:57:00.119Z,50
2018-11-21T12:58:00.124Z,55
2018-11-21T12:59:00.363Z,55
2018-11-21T13:00:00.582Z,55
2018-11-21T13:01:00.310Z,55
2018-11-21T13:01:59.797Z,55
2018-11-21T13:03:00.308Z,50
2018-11-21T13:04:00.282Z,50
2018-11-21T13:05:00.573Z,50
2018-11-21T13:06:00.279Z,50
2018-11-21T13:07:00.256Z,50
2018-11-21T13:08:00.257Z,50
2018-11-21T13:09:00.523Z,50
2018-11-21T13:10:06.290Z,55
2018-11-21T13:11:00.482Z,55
2018-11-21T13:12:00.467Z,60
2018-11-21T13:13:00.515Z,65
2018-11-21T13:14:00.207Z,65
2018-11-21T13:15:00.435Z,65
2018-11-21T13:16:00.175Z,60
2018-11-21T13:17:00.141Z,55
2018-11-21T13:18:00.158Z,55
2018-11-21T13:18:59.909Z,50
2018-11-21T13:19:59.867Z,50
2018-11-21T13:20:59.876Z,55
2018-11-21T13:22:00.354Z,55
2018-11-21T13:23:00.152Z,55
2018-11-21T13:24:00.103Z,55
2018-11-21T13:25:00.370Z,50
2018-11-21T13:26:00.071Z,50
2018-11-21T13:27:00.068Z,50
2018-11-21T13:28:00.339Z,50
2018-11-21T13:29:00.049Z,50
2018-11-21T13:29:59.769Z,45
2018-11-21T13:31:00.039Z,45
2018-11-21T13:32:00.023Z,45
2018-11-21T13:33:00.276Z,45
2018-11-21T13:34:00.010Z,40
2018-11-21T13:34:59.981Z,40
2018-11-21T13:35:59.739Z,40
2018-11-21T13:37:00.218Z,35
2018-11-21T13:38:00.357Z,35
2018-11-21T13:38:59.949Z,35
2018-11-21T13:39:59.432Z,30
2018-11-21T13:40:59.517Z,30
2018-11-21T13:41:59.913Z,25
2018-11-21T13:43:00.180Z,25
2018-11-21T13:43:59.692Z,25
2018-11-21T13:44:59.620Z,25
2018-11-21T13:45:59.632Z,25
2018-11-21T13:47:00.183Z,25
2018-11-21T13:47:59.634Z,25
2018-11-21T13:49:04.405Z,25
2018-11-21T13:49:59.337Z,25
2018-11-21T13:50:59.318Z,20
2018-11-21T13:51:59.549Z,25
2018-11-21T13:52:59.528Z,25
2018-11-21T13:53:59.822Z,25
2018-11-21T13:54:59.791Z,25
2018-11-21T13:55:59.025Z,25
2018-11-21T13:57:00.626Z,20
2018-11-21T13:57:59.989Z,20
2018-11-21T13:58:59.997Z,20
2018-11-21T13:59:59.716Z,20
2018-11-21T14:00:59.732Z,20
2018-11-21T14:01:59.804Z,20
2018-11-21T14:02:59.968Z,20
2018-11-21T14:03:59.708Z,20
2018-11-21T14:04:59.683Z,20
2018-11-21T14:05:59.942Z,20
2018-11-21T14:06:59.708Z,20
2018-11-21T14:07:59.912Z,20
2018-11-21T14:08:59.423Z,20
2018-11-21T14:09:59.657Z,20
2018-11-21T14:10:59.373Z,20
2018-11-21T14:11:59.127Z,20
2018-11-21T14:12:59.101Z,20
2018-11-21T14:14:05.889Z,20
2018-11-21T14:14:59.591Z,20
2018-11-21T14:15:59.316Z,20
2018-11-21T14:16:59.088Z,20
2018-11-21T14:17:59.816Z,20
2018-11-21T14:18:59.857Z,20
2018-11-21T14:19:59.576Z,20
2018-11-21T14:20:59.058Z,20
2018-11-21T14:22:04.720Z,15
2018-11-21T14:22:59.022Z,20
2018-11-21T14:23:58.998Z,20
2018-11-21T14:24:59.255Z,20
2018-11-21T14:25:59.550Z,20
2018-11-21T14:26:58.966Z,20
2018-11-21T14:27:59.584Z,20
2018-11-21T14:28:59.209Z,20
2018-11-21T14:29:59.455Z,20